sensor_id;sensor_type;location;lat;lon;timestamp;P1;durP1;ratioP1;P2;durP2;ratioP2
42194;SDS011;27863;49.440;11.102;2023-09-07T00:02:26;4.78;;;4.20;;
42194;SDS011;27863;49.440;11.102;2023-09-07T00:05:26;5.30;;;4.28;;
42194;SDS011;27863;49.440;11.102;2023-09-07T00:08:27;5.63;;;4.03;;
42194;SDS011;27863;49.440;11.102;2023-09-07T00:11:27;5.75;;;4.25;;
42194;SDS011;27863;49.440;11.102;2023-09-07T00:14:28;6.22;;;4.68;;
42194;SDS011;27863;49.440;11.102;2023-09-07T00:17:30;4.68;;;4.30;;
42194;SDS011;27863;49.440;11.102;2023-09-07T00:20:31;5.63;;;4.07;;
42194;SDS011;27863;49.440;11.102;2023-09-07T00:23:35;5.55;;;5.13;;
42194;SDS011;27863;49.440;11.102;2023-09-07T00:26:35;5.20;;;4.80;;
42194;SDS011;27863;49.440;11.102;2023-09-07T00:29:36;5.13;;;4.65;;
42194;SDS011;27863;49.440;11.102;2023-09-07T00:32:37;4.97;;;4.57;;
42194;SDS011;27863;49.440;11.102;2023-09-07T00:35:38;4.30;;;3.78;;
42194;SDS011;27863;49.440;11.102;2023-09-07T00:38:38;4.43;;;4.13;;
42194;SDS011;27863;49.440;11.102;2023-09-07T00:41:41;5.30;;;4.90;;
42194;SDS011;27863;49.440;11.102;2023-09-07T00:44:42;4.63;;;4.32;;
42194;SDS011;27863;49.440;11.102;2023-09-07T00:47:44;5.00;;;4.60;;
42194;SDS011;27863;49.440;11.102;2023-09-07T00:50:45;4.57;;;4.28;;
42194;SDS011;27863;49.440;11.102;2023-09-07T00:53:46;6.47;;;4.95;;
42194;SDS011;27863;49.440;11.102;2023-09-07T00:56:47;5.50;;;5.10;;
42194;SDS011;27863;49.440;11.102;2023-09-07T00:59:47;5.32;;;4.93;;
42194;SDS011;27863;49.440;11.102;2023-09-07T01:02:48;4.65;;;4.35;;
42194;SDS011;27863;49.440;11.102;2023-09-07T01:08:57;5.43;;;5.03;;
42194;SDS011;27863;49.440;11.102;2023-09-07T01:12:01;5.38;;;4.82;;
42194;SDS011;27863;49.440;11.102;2023-09-07T01:15:01;4.57;;;4.25;;
42194;SDS011;27863;49.440;11.102;2023-09-07T01:18:06;5.40;;;4.80;;
42194;SDS011;27863;49.440;11.102;2023-09-07T01:21:09;10.23;;;6.00;;
42194;SDS011;27863;49.440;11.102;2023-09-07T01:24:11;4.75;;;4.35;;
42194;SDS011;27863;49.440;11.102;2023-09-07T01:27:14;6.25;;;5.70;;
42194;SDS011;27863;49.440;11.102;2023-09-07T01:30:16;5.57;;;5.07;;
42194;SDS011;27863;49.440;11.102;2023-09-07T01:33:18;5.75;;;5.03;;
42194;SDS011;27863;49.440;11.102;2023-09-07T01:36:19;6.20;;;4.72;;
42194;SDS011;27863;49.440;11.102;2023-09-07T01:39:19;5.97;;;5.38;;
42194;SDS011;27863;49.440;11.102;2023-09-07T01:42:20;5.28;;;4.88;;
42194;SDS011;27863;49.440;11.102;2023-09-07T01:45:22;5.05;;;4.75;;
42194;SDS011;27863;49.440;11.102;2023-09-07T01:48:25;5.18;;;4.82;;
42194;SDS011;27863;49.440;11.102;2023-09-07T01:51:25;5.47;;;5.07;;
42194;SDS011;27863;49.440;11.102;2023-09-07T01:54:27;5.70;;;4.82;;
42194;SDS011;27863;49.440;11.102;2023-09-07T01:57:28;5.30;;;4.82;;
42194;SDS011;27863;49.440;11.102;2023-09-07T02:00:29;4.38;;;4.03;;
42194;SDS011;27863;49.440;11.102;2023-09-07T02:03:31;5.88;;;4.82;;
42194;SDS011;27863;49.440;11.102;2023-09-07T02:06:31;5.28;;;4.88;;
42194;SDS011;27863;49.440;11.102;2023-09-07T02:09:32;10.23;;;5.70;;
42194;SDS011;27863;49.440;11.102;2023-09-07T02:12:34;5.03;;;4.63;;
42194;SDS011;27863;49.440;11.102;2023-09-07T02:15:38;5.47;;;5.07;;
42194;SDS011;27863;49.440;11.102;2023-09-07T02:18:41;4.88;;;4.47;;
42194;SDS011;27863;49.440;11.102;2023-09-07T02:21:47;4.53;;;4.22;;
42194;SDS011;27863;49.440;11.102;2023-09-07T02:24:48;5.40;;;4.90;;
42194;SDS011;27863;49.440;11.102;2023-09-07T02:27:49;5.55;;;5.05;;
42194;SDS011;27863;49.440;11.102;2023-09-07T02:30:49;5.28;;;4.88;;
42194;SDS011;27863;49.440;11.102;2023-09-07T02:33:51;5.10;;;4.80;;
42194;SDS011;27863;49.440;11.102;2023-09-07T02:36:52;6.45;;;5.13;;
42194;SDS011;27863;49.440;11.102;2023-09-07T02:39:52;5.20;;;4.80;;
42194;SDS011;27863;49.440;11.102;2023-09-07T02:42:53;5.72;;;5.22;;
42194;SDS011;27863;49.440;11.102;2023-09-07T02:45:54;6.10;;;5.10;;
42194;SDS011;27863;49.440;11.102;2023-09-07T02:48:58;6.35;;;5.82;;
42194;SDS011;27863;49.440;11.102;2023-09-07T02:51:59;5.90;;;5.50;;
42194;SDS011;27863;49.440;11.102;2023-09-07T02:55:01;5.93;;;5.43;;
42194;SDS011;27863;49.440;11.102;2023-09-07T02:58:03;5.57;;;5.10;;
42194;SDS011;27863;49.440;11.102;2023-09-07T03:01:07;5.75;;;5.28;;
42194;SDS011;27863;49.440;11.102;2023-09-07T03:04:11;6.65;;;5.43;;
42194;SDS011;27863;49.440;11.102;2023-09-07T03:07:11;6.18;;;5.68;;
42194;SDS011;27863;49.440;11.102;2023-09-07T03:10:12;7.25;;;6.55;;
42194;SDS011;27863;49.440;11.102;2023-09-07T03:13:15;5.97;;;5.47;;
42194;SDS011;27863;49.440;11.102;2023-09-07T03:16:18;6.43;;;5.93;;
42194;SDS011;27863;49.440;11.102;2023-09-07T03:19:18;6.07;;;4.85;;
42194;SDS011;27863;49.440;11.102;2023-09-07T03:22:20;6.32;;;5.57;;
42194;SDS011;27863;49.440;11.102;2023-09-07T03:25:22;5.93;;;5.35;;
42194;SDS011;27863;49.440;11.102;2023-09-07T03:28:26;6.10;;;5.60;;
42194;SDS011;27863;49.440;11.102;2023-09-07T03:31:26;5.95;;;5.53;;
42194;SDS011;27863;49.440;11.102;2023-09-07T03:34:27;5.65;;;5.15;;
42194;SDS011;27863;49.440;11.102;2023-09-07T03:37:28;6.30;;;5.80;;
42194;SDS011;27863;49.440;11.102;2023-09-07T03:40:30;5.35;;;5.05;;
42194;SDS011;27863;49.440;11.102;2023-09-07T03:43:32;5.53;;;4.82;;
42194;SDS011;27863;49.440;11.102;2023-09-07T03:46:33;5.78;;;5.18;;
42194;SDS011;27863;49.440;11.102;2023-09-07T03:49:33;5.43;;;4.93;;
42194;SDS011;27863;49.440;11.102;2023-09-07T03:52:34;6.03;;;5.53;;
42194;SDS011;27863;49.440;11.102;2023-09-07T03:55:42;5.82;;;5.32;;
42194;SDS011;27863;49.440;11.102;2023-09-07T03:58:45;4.93;;;4.57;;
42194;SDS011;27863;49.440;11.102;2023-09-07T04:01:50;5.97;;;5.53;;
42194;SDS011;27863;49.440;11.102;2023-09-07T04:04:52;5.88;;;5.40;;
42194;SDS011;27863;49.440;11.102;2023-09-07T04:07:53;5.43;;;5.03;;
42194;SDS011;27863;49.440;11.102;2023-09-07T04:10:55;5.38;;;4.97;;
42194;SDS011;27863;49.440;11.102;2023-09-07T04:13:56;5.60;;;5.10;;
42194;SDS011;27863;49.440;11.102;2023-09-07T04:16:58;5.90;;;5.43;;
42194;SDS011;27863;49.440;11.102;2023-09-07T04:19:59;6.28;;;5.68;;
42194;SDS011;27863;49.440;11.102;2023-09-07T04:23:01;6.15;;;5.65;;
42194;SDS011;27863;49.440;11.102;2023-09-07T04:26:08;6.47;;;5.88;;
42194;SDS011;27863;49.440;11.102;2023-09-07T04:29:10;5.90;;;5.50;;
42194;SDS011;27863;49.440;11.102;2023-09-07T04:32:13;6.35;;;5.75;;
42194;SDS011;27863;49.440;11.102;2023-09-07T04:35:13;6.38;;;5.78;;
42194;SDS011;27863;49.440;11.102;2023-09-07T04:38:14;6.72;;;5.95;;
42194;SDS011;27863;49.440;11.102;2023-09-07T04:41:15;5.95;;;5.47;;
42194;SDS011;27863;49.440;11.102;2023-09-07T04:44:16;8.05;;;7.15;;
42194;SDS011;27863;49.440;11.102;2023-09-07T04:47:18;6.72;;;6.13;;
42194;SDS011;27863;49.440;11.102;2023-09-07T04:50:19;5.97;;;5.53;;
42194;SDS011;27863;49.440;11.102;2023-09-07T04:53:21;9.13;;;5.95;;
42194;SDS011;27863;49.440;11.102;2023-09-07T04:56:23;6.80;;;5.68;;
42194;SDS011;27863;49.440;11.102;2023-09-07T04:59:25;7.03;;;6.32;;
42194;SDS011;27863;49.440;11.102;2023-09-07T05:02:26;7.20;;;6.53;;
42194;SDS011;27863;49.440;11.102;2023-09-07T05:05:28;6.13;;;5.63;;
42194;SDS011;27863;49.440;11.102;2023-09-07T05:08:30;6.00;;;5.50;;
42194;SDS011;27863;49.440;11.102;2023-09-07T05:11:32;7.70;;;5.80;;
42194;SDS011;27863;49.440;11.102;2023-09-07T05:14:35;6.35;;;5.75;;
42194;SDS011;27863;49.440;11.102;2023-09-07T05:17:36;6.43;;;5.82;;
42194;SDS011;27863;49.440;11.102;2023-09-07T05:20:38;7.63;;;7.03;;
42194;SDS011;27863;49.440;11.102;2023-09-07T05:23:40;7.65;;;7.00;;
42194;SDS011;27863;49.440;11.102;2023-09-07T05:26:42;10.15;;;6.05;;
42194;SDS011;27863;49.440;11.102;2023-09-07T05:29:43;6.28;;;5.88;;
42194;SDS011;27863;49.440;11.102;2023-09-07T05:32:47;6.63;;;5.80;;
42194;SDS011;27863;49.440;11.102;2023-09-07T05:35:50;6.55;;;5.97;;
42194;SDS011;27863;49.440;11.102;2023-09-07T05:38:51;6.25;;;5.68;;
42194;SDS011;27863;49.440;11.102;2023-09-07T05:41:51;9.10;;;6.55;;
42194;SDS011;27863;49.440;11.102;2023-09-07T05:44:52;6.72;;;5.70;;
42194;SDS011;27863;49.440;11.102;2023-09-07T05:47:52;5.93;;;5.53;;
42194;SDS011;27863;49.440;11.102;2023-09-07T05:50:53;6.30;;;5.35;;
42194;SDS011;27863;49.440;11.102;2023-09-07T05:53:54;7.25;;;6.65;;
42194;SDS011;27863;49.440;11.102;2023-09-07T05:56:56;7.80;;;7.00;;
42194;SDS011;27863;49.440;11.102;2023-09-07T05:59:56;7.68;;;6.72;;
42194;SDS011;27863;49.440;11.102;2023-09-07T06:02:57;8.30;;;7.50;;
42194;SDS011;27863;49.440;11.102;2023-09-07T06:05:58;6.05;;;5.55;;
42194;SDS011;27863;49.440;11.102;2023-09-07T06:08:59;7.45;;;6.32;;
42194;SDS011;27863;49.440;11.102;2023-09-07T06:12:02;7.47;;;6.78;;
42194;SDS011;27863;49.440;11.102;2023-09-07T06:15:03;8.65;;;6.03;;
42194;SDS011;27863;49.440;11.102;2023-09-07T06:18:04;7.03;;;6.43;;
42194;SDS011;27863;49.440;11.102;2023-09-07T06:21:06;7.15;;;6.55;;
42194;SDS011;27863;49.440;11.102;2023-09-07T06:24:08;6.70;;;6.05;;
42194;SDS011;27863;49.440;11.102;2023-09-07T06:27:10;6.35;;;5.85;;
42194;SDS011;27863;49.440;11.102;2023-09-07T06:30:10;6.55;;;5.93;;
42194;SDS011;27863;49.440;11.102;2023-09-07T06:33:12;7.82;;;5.90;;
42194;SDS011;27863;49.440;11.102;2023-09-07T06:36:15;8.20;;;5.65;;
42194;SDS011;27863;49.440;11.102;2023-09-07T06:39:15;7.45;;;6.25;;
42194;SDS011;27863;49.440;11.102;2023-09-07T06:42:16;8.10;;;6.13;;
42194;SDS011;27863;49.440;11.102;2023-09-07T06:45:20;10.05;;;6.22;;
42194;SDS011;27863;49.440;11.102;2023-09-07T06:48:24;6.32;;;5.72;;
42194;SDS011;27863;49.440;11.102;2023-09-07T06:51:24;5.55;;;5.00;;
42194;SDS011;27863;49.440;11.102;2023-09-07T06:54:27;6.45;;;5.88;;
42194;SDS011;27863;49.440;11.102;2023-09-07T06:57:28;10.65;;;5.63;;
42194;SDS011;27863;49.440;11.102;2023-09-07T07:00:29;7.32;;;5.55;;
42194;SDS011;27863;49.440;11.102;2023-09-07T07:03:30;6.10;;;5.40;;
42194;SDS011;27863;49.440;11.102;2023-09-07T07:06:32;7.40;;;5.60;;
42194;SDS011;27863;49.440;11.102;2023-09-07T07:09:32;5.90;;;5.32;;
42194;SDS011;27863;49.440;11.102;2023-09-07T07:12:34;6.53;;;5.45;;
42194;SDS011;27863;49.440;11.102;2023-09-07T07:15:35;9.48;;;5.43;;
42194;SDS011;27863;49.440;11.102;2023-09-07T07:18:36;8.80;;;5.30;;
42194;SDS011;27863;49.440;11.102;2023-09-07T07:21:37;7.18;;;5.38;;
42194;SDS011;27863;49.440;11.102;2023-09-07T07:24:46;6.78;;;4.85;;
42194;SDS011;27863;49.440;11.102;2023-09-07T07:27:47;5.93;;;5.30;;
42194;SDS011;27863;49.440;11.102;2023-09-07T07:30:48;4.63;;;4.07;;
42194;SDS011;27863;49.440;11.102;2023-09-07T07:33:49;6.38;;;5.65;;
42194;SDS011;27863;49.440;11.102;2023-09-07T07:36:50;5.78;;;5.22;;
42194;SDS011;27863;49.440;11.102;2023-09-07T07:39:51;5.03;;;4.60;;
42194;SDS011;27863;49.440;11.102;2023-09-07T07:42:52;5.38;;;4.07;;
42194;SDS011;27863;49.440;11.102;2023-09-07T07:45:54;4.18;;;3.58;;
42194;SDS011;27863;49.440;11.102;2023-09-07T07:48:57;4.25;;;3.65;;
42194;SDS011;27863;49.440;11.102;2023-09-07T07:51:59;5.50;;;3.75;;
42194;SDS011;27863;49.440;11.102;2023-09-07T07:55:00;3.60;;;3.30;;
42194;SDS011;27863;49.440;11.102;2023-09-07T07:58:01;4.65;;;3.75;;
42194;SDS011;27863;49.440;11.102;2023-09-07T08:01:01;4.53;;;4.03;;
42194;SDS011;27863;49.440;11.102;2023-09-07T08:04:05;3.63;;;3.33;;
42194;SDS011;27863;49.440;11.102;2023-09-07T08:07:09;3.05;;;2.78;;
42194;SDS011;27863;49.440;11.102;2023-09-07T08:10:12;3.53;;;3.13;;
42194;SDS011;27863;49.440;11.102;2023-09-07T08:13:13;3.20;;;2.90;;
42194;SDS011;27863;49.440;11.102;2023-09-07T08:16:14;2.97;;;2.50;;
42194;SDS011;27863;49.440;11.102;2023-09-07T08:19:15;2.83;;;2.63;;
42194;SDS011;27863;49.440;11.102;2023-09-07T08:22:16;2.65;;;2.45;;
42194;SDS011;27863;49.440;11.102;2023-09-07T08:25:17;3.05;;;2.53;;
42194;SDS011;27863;49.440;11.102;2023-09-07T08:28:18;3.38;;;2.38;;
42194;SDS011;27863;49.440;11.102;2023-09-07T08:31:18;2.03;;;1.88;;
42194;SDS011;27863;49.440;11.102;2023-09-07T08:34:22;3.67;;;2.03;;
42194;SDS011;27863;49.440;11.102;2023-09-07T08:37:23;2.35;;;2.15;;
42194;SDS011;27863;49.440;11.102;2023-09-07T08:40:25;2.53;;;2.20;;
42194;SDS011;27863;49.440;11.102;2023-09-07T08:43:28;2.35;;;2.15;;
42194;SDS011;27863;49.440;11.102;2023-09-07T08:46:29;2.47;;;2.30;;
42194;SDS011;27863;49.440;11.102;2023-09-07T08:49:30;2.60;;;2.40;;
42194;SDS011;27863;49.440;11.102;2023-09-07T08:52:34;2.75;;;2.35;;
42194;SDS011;27863;49.440;11.102;2023-09-07T08:55:35;3.05;;;2.03;;
42194;SDS011;27863;49.440;11.102;2023-09-07T08:58:36;3.83;;;2.78;;
42194;SDS011;27863;49.440;11.102;2023-09-07T09:01:37;4.78;;;2.83;;
42194;SDS011;27863;49.440;11.102;2023-09-07T09:04:37;3.05;;;2.45;;
42194;SDS011;27863;49.440;11.102;2023-09-07T09:07:39;6.90;;;2.42;;
42194;SDS011;27863;49.440;11.102;2023-09-07T09:10:39;5.88;;;2.45;;
42194;SDS011;27863;49.440;11.102;2023-09-07T09:13:40;3.22;;;2.92;;
42194;SDS011;27863;49.440;11.102;2023-09-07T09:16:42;3.60;;;3.30;;
42194;SDS011;27863;49.440;11.102;2023-09-07T09:19:49;3.65;;;3.45;;
42194;SDS011;27863;49.440;11.102;2023-09-07T09:22:50;4.70;;;3.33;;
42194;SDS011;27863;49.440;11.102;2023-09-07T09:25:53;4.47;;;3.63;;
42194;SDS011;27863;49.440;11.102;2023-09-07T09:28:56;3.83;;;3.53;;
42194;SDS011;27863;49.440;11.102;2023-09-07T09:31:56;4.40;;;4.07;;
42194;SDS011;27863;49.440;11.102;2023-09-07T09:34:57;3.88;;;3.58;;
42194;SDS011;27863;49.440;11.102;2023-09-07T09:38:00;5.53;;;3.67;;
42194;SDS011;27863;49.440;11.102;2023-09-07T09:41:05;3.80;;;3.50;;
42194;SDS011;27863;49.440;11.102;2023-09-07T09:44:06;3.10;;;2.72;;
42194;SDS011;27863;49.440;11.102;2023-09-07T09:47:07;4.18;;;3.38;;
42194;SDS011;27863;49.440;11.102;2023-09-07T09:50:09;3.30;;;3.00;;
42194;SDS011;27863;49.440;11.102;2023-09-07T09:53:12;3.00;;;2.80;;
42194;SDS011;27863;49.440;11.102;2023-09-07T09:56:16;3.55;;;3.25;;
42194;SDS011;27863;49.440;11.102;2023-09-07T09:59:17;5.78;;;3.15;;
42194;SDS011;27863;49.440;11.102;2023-09-07T10:02:17;3.90;;;2.90;;
42194;SDS011;27863;49.440;11.102;2023-09-07T10:05:18;6.57;;;3.50;;
42194;SDS011;27863;49.440;11.102;2023-09-07T10:08:20;4.38;;;2.67;;
42194;SDS011;27863;49.440;11.102;2023-09-07T10:11:32;3.95;;;3.55;;
42194;SDS011;27863;49.440;11.102;2023-09-07T10:14:37;3.70;;;3.08;;
42194;SDS011;27863;49.440;11.102;2023-09-07T10:17:41;3.42;;;3.17;;
42194;SDS011;27863;49.440;11.102;2023-09-07T10:20:55;3.88;;;3.58;;
42194;SDS011;27863;49.440;11.102;2023-09-07T10:23:58;5.93;;;2.95;;
42194;SDS011;27863;49.440;11.102;2023-09-07T10:27:02;3.58;;;3.22;;
42194;SDS011;27863;49.440;11.102;2023-09-07T10:30:11;5.38;;;3.80;;
42194;SDS011;27863;49.440;11.102;2023-09-07T10:33:20;3.38;;;3.08;;
42194;SDS011;27863;49.440;11.102;2023-09-07T10:36:22;3.42;;;3.13;;
42194;SDS011;27863;49.440;11.102;2023-09-07T10:39:28;12.65;;;2.90;;
42194;SDS011;27863;49.440;11.102;2023-09-07T10:42:31;9.85;;;3.00;;
42194;SDS011;27863;49.440;11.102;2023-09-07T10:45:33;5.13;;;3.47;;
42194;SDS011;27863;49.440;11.102;2023-09-07T10:48:33;2.88;;;2.67;;
42194;SDS011;27863;49.440;11.102;2023-09-07T10:51:39;2.92;;;2.72;;
42194;SDS011;27863;49.440;11.102;2023-09-07T10:54:55;3.78;;;3.38;;
42194;SDS011;27863;49.440;11.102;2023-09-07T10:57:56;2.85;;;2.60;;
42194;SDS011;27863;49.440;11.102;2023-09-07T11:00:57;6.20;;;3.22;;
42194;SDS011;27863;49.440;11.102;2023-09-07T11:03:58;4.00;;;3.45;;
42194;SDS011;27863;49.440;11.102;2023-09-07T11:07:00;4.30;;;3.08;;
42194;SDS011;27863;49.440;11.102;2023-09-07T11:10:04;5.50;;;3.95;;
42194;SDS011;27863;49.440;11.102;2023-09-07T11:13:06;3.42;;;2.90;;
42194;SDS011;27863;49.440;11.102;2023-09-07T11:16:07;5.15;;;3.63;;
42194;SDS011;27863;49.440;11.102;2023-09-07T11:19:09;3.50;;;3.30;;
42194;SDS011;27863;49.440;11.102;2023-09-07T11:22:10;3.40;;;3.20;;
42194;SDS011;27863;49.440;11.102;2023-09-07T11:25:11;4.07;;;3.67;;
42194;SDS011;27863;49.440;11.102;2023-09-07T11:28:11;4.90;;;3.63;;
42194;SDS011;27863;49.440;11.102;2023-09-07T11:31:12;4.32;;;3.38;;
42194;SDS011;27863;49.440;11.102;2023-09-07T11:34:14;3.30;;;3.10;;
42194;SDS011;27863;49.440;11.102;2023-09-07T11:37:15;7.47;;;3.00;;
42194;SDS011;27863;49.440;11.102;2023-09-07T11:40:16;3.22;;;2.88;;
42194;SDS011;27863;49.440;11.102;2023-09-07T11:43:17;3.95;;;3.65;;
42194;SDS011;27863;49.440;11.102;2023-09-07T11:46:19;3.33;;;2.95;;
42194;SDS011;27863;49.440;11.102;2023-09-07T11:49:19;4.25;;;3.55;;
42194;SDS011;27863;49.440;11.102;2023-09-07T11:52:21;3.72;;;3.03;;
42194;SDS011;27863;49.440;11.102;2023-09-07T11:55:22;5.00;;;4.07;;
42194;SDS011;27863;49.440;11.102;2023-09-07T11:58:22;3.10;;;2.80;;
42194;SDS011;27863;49.440;11.102;2023-09-07T12:01:24;5.60;;;3.72;;
42194;SDS011;27863;49.440;11.102;2023-09-07T12:04:26;3.47;;;3.28;;
42194;SDS011;27863;49.440;11.102;2023-09-07T12:07:28;5.80;;;5.40;;
42194;SDS011;27863;49.440;11.102;2023-09-07T12:10:28;3.53;;;3.05;;
42194;SDS011;27863;49.440;11.102;2023-09-07T12:13:29;3.35;;;3.05;;
42194;SDS011;27863;49.440;11.102;2023-09-07T12:16:30;4.00;;;3.60;;
42194;SDS011;27863;49.440;11.102;2023-09-07T12:19:30;3.47;;;3.20;;
42194;SDS011;27863;49.440;11.102;2023-09-07T12:22:31;3.42;;;3.13;;
42194;SDS011;27863;49.440;11.102;2023-09-07T12:25:34;3.70;;;3.40;;
42194;SDS011;27863;49.440;11.102;2023-09-07T12:28:35;3.60;;;3.30;;
42194;SDS011;27863;49.440;11.102;2023-09-07T12:31:36;3.22;;;2.97;;
42194;SDS011;27863;49.440;11.102;2023-09-07T12:34:37;7.28;;;3.38;;
42194;SDS011;27863;49.440;11.102;2023-09-07T12:37:37;5.25;;;3.53;;
42194;SDS011;27863;49.440;11.102;2023-09-07T12:40:38;3.80;;;3.38;;
42194;SDS011;27863;49.440;11.102;2023-09-07T12:43:38;3.58;;;3.28;;
42194;SDS011;27863;49.440;11.102;2023-09-07T12:46:40;3.88;;;2.65;;
42194;SDS011;27863;49.440;11.102;2023-09-07T12:49:40;3.45;;;3.15;;
42194;SDS011;27863;49.440;11.102;2023-09-07T12:52:42;7.93;;;3.30;;
42194;SDS011;27863;49.440;11.102;2023-09-07T12:55:43;4.05;;;3.42;;
42194;SDS011;27863;49.440;11.102;2023-09-07T12:58:43;3.40;;;3.10;;
42194;SDS011;27863;49.440;11.102;2023-09-07T13:01:44;3.40;;;3.20;;
42194;SDS011;27863;49.440;11.102;2023-09-07T13:04:45;3.13;;;2.92;;
42194;SDS011;27863;49.440;11.102;2023-09-07T13:07:45;4.10;;;3.70;;
42194;SDS011;27863;49.440;11.102;2023-09-07T13:10:48;3.40;;;3.10;;
42194;SDS011;27863;49.440;11.102;2023-09-07T13:13:49;4.40;;;3.17;;
42194;SDS011;27863;49.440;11.102;2023-09-07T13:16:49;4.70;;;3.90;;
42194;SDS011;27863;49.440;11.102;2023-09-07T13:19:51;10.80;;;9.85;;
42194;SDS011;27863;49.440;11.102;2023-09-07T13:22:51;3.83;;;3.40;;
42194;SDS011;27863;49.440;11.102;2023-09-07T13:25:52;3.75;;;3.28;;
42194;SDS011;27863;49.440;11.102;2023-09-07T13:28:52;3.50;;;3.15;;
42194;SDS011;27863;49.440;11.102;2023-09-07T13:31:53;3.60;;;3.35;;
42194;SDS011;27863;49.440;11.102;2023-09-07T13:34:54;3.88;;;3.58;;
42194;SDS011;27863;49.440;11.102;2023-09-07T13:37:54;3.85;;;3.47;;
42194;SDS011;27863;49.440;11.102;2023-09-07T13:40:55;3.97;;;3.67;;
42194;SDS011;27863;49.440;11.102;2023-09-07T13:43:55;3.20;;;2.90;;
42194;SDS011;27863;49.440;11.102;2023-09-07T13:46:56;3.97;;;3.58;;
42194;SDS011;27863;49.440;11.102;2023-09-07T13:49:57;4.20;;;3.20;;
42194;SDS011;27863;49.440;11.102;2023-09-07T13:52:58;3.97;;;3.47;;
42194;SDS011;27863;49.440;11.102;2023-09-07T13:55:58;3.35;;;3.15;;
42194;SDS011;27863;49.440;11.102;2023-09-07T13:58:59;3.13;;;2.83;;
42194;SDS011;27863;49.440;11.102;2023-09-07T14:02:00;3.70;;;3.28;;
42194;SDS011;27863;49.440;11.102;2023-09-07T14:05:00;3.55;;;3.25;;
42194;SDS011;27863;49.440;11.102;2023-09-07T14:08:01;3.58;;;3.35;;
42194;SDS011;27863;49.440;11.102;2023-09-07T14:11:01;5.28;;;3.55;;
42194;SDS011;27863;49.440;11.102;2023-09-07T14:14:06;6.53;;;3.20;;
42194;SDS011;27863;49.440;11.102;2023-09-07T14:17:07;3.60;;;3.30;;
42194;SDS011;27863;49.440;11.102;2023-09-07T14:20:07;6.93;;;3.08;;
42194;SDS011;27863;49.440;11.102;2023-09-07T14:23:11;4.38;;;3.33;;
42194;SDS011;27863;49.440;11.102;2023-09-07T14:26:11;3.55;;;3.25;;
42194;SDS011;27863;49.440;11.102;2023-09-07T14:29:12;3.58;;;3.28;;
42194;SDS011;27863;49.440;11.102;2023-09-07T14:32:12;3.13;;;2.92;;
42194;SDS011;27863;49.440;11.102;2023-09-07T14:35:13;3.67;;;3.38;;
42194;SDS011;27863;49.440;11.102;2023-09-07T14:38:14;3.63;;;3.33;;
42194;SDS011;27863;49.440;11.102;2023-09-07T14:41:14;3.65;;;2.95;;
42194;SDS011;27863;49.440;11.102;2023-09-07T14:44:19;3.25;;;3.00;;
42194;SDS011;27863;49.440;11.102;2023-09-07T14:47:20;3.25;;;3.05;;
42194;SDS011;27863;49.440;11.102;2023-09-07T14:50:25;3.03;;;2.72;;
42194;SDS011;27863;49.440;11.102;2023-09-07T14:53:25;3.38;;;3.17;;
42194;SDS011;27863;49.440;11.102;2023-09-07T14:56:26;3.03;;;2.83;;
42194;SDS011;27863;49.440;11.102;2023-09-07T14:59:28;2.95;;;2.65;;
42194;SDS011;27863;49.440;11.102;2023-09-07T15:02:29;4.70;;;3.85;;
42194;SDS011;27863;49.440;11.102;2023-09-07T15:05:31;3.28;;;3.08;;
42194;SDS011;27863;49.440;11.102;2023-09-07T15:08:33;6.75;;;2.75;;
42194;SDS011;27863;49.440;11.102;2023-09-07T15:11:34;4.90;;;2.97;;
42194;SDS011;27863;49.440;11.102;2023-09-07T15:14:34;3.40;;;3.13;;
42194;SDS011;27863;49.440;11.102;2023-09-07T15:17:37;3.13;;;2.92;;
42194;SDS011;27863;49.440;11.102;2023-09-07T15:20:38;3.15;;;2.95;;
42194;SDS011;27863;49.440;11.102;2023-09-07T15:23:39;3.67;;;3.40;;
42194;SDS011;27863;49.440;11.102;2023-09-07T15:26:43;3.90;;;3.53;;
42194;SDS011;27863;49.440;11.102;2023-09-07T15:29:44;3.50;;;2.90;;
42194;SDS011;27863;49.440;11.102;2023-09-07T15:32:46;3.17;;;2.88;;
42194;SDS011;27863;49.440;11.102;2023-09-07T15:35:47;3.78;;;3.47;;
42194;SDS011;27863;49.440;11.102;2023-09-07T15:38:48;3.15;;;2.85;;
42194;SDS011;27863;49.440;11.102;2023-09-07T15:41:49;3.38;;;3.08;;
42194;SDS011;27863;49.440;11.102;2023-09-07T15:44:51;5.88;;;2.83;;
42194;SDS011;27863;49.440;11.102;2023-09-07T15:47:51;3.72;;;3.42;;
42194;SDS011;27863;49.440;11.102;2023-09-07T15:50:54;3.28;;;2.97;;
42194;SDS011;27863;49.440;11.102;2023-09-07T15:53:55;3.75;;;2.67;;
42194;SDS011;27863;49.440;11.102;2023-09-07T15:56:56;3.75;;;2.50;;
42194;SDS011;27863;49.440;11.102;2023-09-07T15:59:56;2.88;;;2.30;;
42194;SDS011;27863;49.440;11.102;2023-09-07T16:03:00;3.95;;;2.78;;
42194;SDS011;27863;49.440;11.102;2023-09-07T16:06:00;4.05;;;3.67;;
42194;SDS011;27863;49.440;11.102;2023-09-07T16:09:02;3.28;;;3.03;;
42194;SDS011;27863;49.440;11.102;2023-09-07T16:12:02;4.38;;;3.08;;
42194;SDS011;27863;49.440;11.102;2023-09-07T16:15:04;3.28;;;3.08;;
42194;SDS011;27863;49.440;11.102;2023-09-07T16:18:05;3.47;;;2.63;;
42194;SDS011;27863;49.440;11.102;2023-09-07T16:21:06;2.67;;;2.47;;
42194;SDS011;27863;49.440;11.102;2023-09-07T16:24:09;3.08;;;2.75;;
42194;SDS011;27863;49.440;11.102;2023-09-07T16:27:11;2.70;;;2.50;;
42194;SDS011;27863;49.440;11.102;2023-09-07T16:30:11;3.63;;;2.65;;
42194;SDS011;27863;49.440;11.102;2023-09-07T16:33:12;2.80;;;2.60;;
42194;SDS011;27863;49.440;11.102;2023-09-07T16:36:13;2.75;;;2.55;;
42194;SDS011;27863;49.440;11.102;2023-09-07T16:39:14;3.47;;;2.58;;
42194;SDS011;27863;49.440;11.102;2023-09-07T16:42:14;3.03;;;2.70;;
42194;SDS011;27863;49.440;11.102;2023-09-07T16:45:15;2.58;;;2.38;;
42194;SDS011;27863;49.440;11.102;2023-09-07T16:48:15;2.70;;;2.50;;
42194;SDS011;27863;49.440;11.102;2023-09-07T16:51:16;3.10;;;2.90;;
42194;SDS011;27863;49.440;11.102;2023-09-07T16:54:17;3.13;;;2.83;;
42194;SDS011;27863;49.440;11.102;2023-09-07T16:57:18;7.68;;;2.58;;
42194;SDS011;27863;49.440;11.102;2023-09-07T17:00:18;3.33;;;3.03;;
42194;SDS011;27863;49.440;11.102;2023-09-07T17:03:20;2.95;;;2.65;;
42194;SDS011;27863;49.440;11.102;2023-09-07T17:06:21;3.00;;;2.80;;
42194;SDS011;27863;49.440;11.102;2023-09-07T17:09:21;3.20;;;2.85;;
42194;SDS011;27863;49.440;11.102;2023-09-07T17:12:22;3.35;;;2.70;;
42194;SDS011;27863;49.440;11.102;2023-09-07T17:15:23;3.17;;;2.97;;
42194;SDS011;27863;49.440;11.102;2023-09-07T17:18:26;3.08;;;2.88;;
42194;SDS011;27863;49.440;11.102;2023-09-07T17:21:27;3.50;;;3.20;;
42194;SDS011;27863;49.440;11.102;2023-09-07T17:24:27;2.80;;;2.60;;
42194;SDS011;27863;49.440;11.102;2023-09-07T17:27:28;5.43;;;2.92;;
42194;SDS011;27863;49.440;11.102;2023-09-07T17:30:29;3.13;;;2.65;;
42194;SDS011;27863;49.440;11.102;2023-09-07T17:33:31;4.15;;;3.67;;
42194;SDS011;27863;49.440;11.102;2023-09-07T17:36:32;3.92;;;3.63;;
42194;SDS011;27863;49.440;11.102;2023-09-07T17:39:33;4.40;;;3.67;;
42194;SDS011;27863;49.440;11.102;2023-09-07T17:42:37;3.10;;;2.70;;
42194;SDS011;27863;49.440;11.102;2023-09-07T17:45:39;7.47;;;6.93;;
42194;SDS011;27863;49.440;11.102;2023-09-07T17:48:39;3.67;;;3.38;;
42194;SDS011;27863;49.440;11.102;2023-09-07T17:51:41;4.03;;;3.00;;
42194;SDS011;27863;49.440;11.102;2023-09-07T17:54:42;7.47;;;6.78;;
42194;SDS011;27863;49.440;11.102;2023-09-07T17:57:42;6.25;;;5.75;;
42194;SDS011;27863;49.440;11.102;2023-09-07T18:00:43;5.68;;;5.18;;